Time;durP1;ratioP1;P1;durP2;ratioP2;P2;SDS_P1;SDS_P2;PMS_P1;PMS_P2;Temp;Humidity;BMP_temperature;BMP_pressure;BME280_temperature;BME280_humidity;BME280_pressure;Samples;Min_cycle;Max_cycle;Signal;HPM_P1;HPM_P2
2021/05/07 00:02:57;;;;;;;16.52;13.35;;;6.40;99.90;;;;;;12217922;28;20078;-77
2021/05/07 00:09:03;;;;;;;21.67;14.77;;;6.40;99.90;;;;;;12210984;28;20101;-78
2021/05/07 00:15:06;;;;;;;19.98;15.43;;;6.20;99.90;;;;;;12218355;28;20044;-78
2021/05/07 00:21:07;;;;;;;24.75;17.85;;;6.30;99.90;;;;;;12210559;28;20496;-78
2021/05/07 00:27:09;;;;;;;22.35;17.23;;;6.30;99.90;;;;;;12212710;28;20139;-78
2021/05/07 00:33:11;;;;;;;23.88;18.58;;;6.40;99.90;;;;;;12204461;28;20558;-78
2021/05/07 00:39:12;;;;;;;15.52;11.18;;;6.30;99.90;;;;;;12218309;28;20142;-78
2021/05/07 00:45:15;;;;;;;10.98;8.75;;;6.30;99.90;;;;;;12214544;28;20391;-78
2021/05/07 00:51:16;;;;;;;9.45;7.13;;;5.60;99.90;;;;;;12206737;28;20101;-78
2021/05/07 00:57:18;;;;;;;8.20;6.55;;;5.30;99.90;;;;;;12211402;28;20559;-79
2021/05/07 01:03:20;;;;;;;10.90;7.55;;;4.90;99.90;;;;;;12213542;28;20036;-78
2021/05/07 01:09:21;;;;;;;11.68;9.05;;;4.90;99.90;;;;;;12201516;28;20171;-79
2021/05/07 01:15:23;;;;;;;11.45;7.70;;;4.80;99.90;;;;;;12205870;28;20052;-78
2021/05/07 01:21:25;;;;;;;9.57;6.93;;;4.70;99.90;;;;;;12216540;28;20122;-79
2021/05/07 01:27:27;;;;;;;8.30;6.50;;;4.50;99.90;;;;;;12216741;28;20404;-79
2021/05/07 01:33:28;;;;;;;8.77;5.93;;;4.30;99.90;;;;;;12221558;28;20121;-79
2021/05/07 01:39:29;;;;;;;7.15;5.25;;;4.10;99.90;;;;;;12227953;28;20175;-79
2021/05/07 01:45:33;;;;;;;7.00;5.35;;;4.10;99.90;;;;;;12217762;28;20469;-79
2021/05/07 01:51:34;;;;;;;11.13;6.47;;;4.00;99.90;;;;;;12220240;28;20056;-79
2021/05/07 01:57:37;;;;;;;8.07;6.00;;;4.00;99.90;;;;;;12212661;28;20079;-78
2021/05/07 02:03:39;;;;;;;9.25;6.38;;;4.10;99.90;;;;;;12214165;28;20048;-78
2021/05/07 02:09:40;;;;;;;8.25;6.07;;;4.30;99.90;;;;;;12209093;28;20055;-78
2021/05/07 02:15:41;;;;;;;7.85;6.03;;;4.30;99.90;;;;;;12208356;28;20774;-77
2021/05/07 02:21:43;;;;;;;8.05;5.88;;;4.30;99.90;;;;;;12214652;28;20043;-77
2021/05/07 02:27:45;;;;;;;8.73;6.93;;;4.10;99.90;;;;;;12217724;28;20060;-78
2021/05/07 02:33:46;;;;;;;11.68;7.60;;;3.90;99.90;;;;;;12217440;28;20110;-78
2021/05/07 02:39:48;;;;;;;9.70;7.57;;;3.90;99.90;;;;;;12217094;28;20451;-78
2021/05/07 02:45:49;;;;;;;13.27;9.13;;;3.80;99.90;;;;;;12208429;28;20935;-77
2021/05/07 02:51:50;;;;;;;14.68;10.00;;;3.60;99.90;;;;;;12212880;28;20926;-77
2021/05/07 02:57:52;;;;;;;15.90;11.35;;;3.60;99.90;;;;;;12212057;28;20804;-77
2021/05/07 03:03:53;;;;;;;16.33;12.02;;;3.60;99.90;;;;;;12205460;28;21057;-77
2021/05/07 03:09:55;;;;;;;16.25;12.30;;;3.70;99.90;;;;;;12203739;28;20146;-78
2021/05/07 03:15:56;;;;;;;17.70;13.05;;;3.60;99.90;;;;;;12213681;28;20084;-77
2021/05/07 03:21:57;;;;;;;20.10;13.88;;;3.60;99.90;;;;;;12209570;28;20497;-77
2021/05/07 03:27:59;;;;;;;20.02;13.70;;;3.60;99.90;;;;;;12207458;28;20056;-77
2021/05/07 03:34:01;;;;;;;21.35;14.93;;;3.60;99.90;;;;;;12204084;28;20092;-77
2021/05/07 03:40:04;;;;;;;21.60;15.57;;;3.60;99.90;;;;;;12210479;28;20386;-78
2021/05/07 03:46:05;;;;;;;21.80;15.65;;;3.60;99.90;;;;;;12209122;28;20059;-77
2021/05/07 03:52:06;;;;;;;20.75;15.02;;;3.50;99.90;;;;;;12207102;28;20482;-78
2021/05/07 03:58:08;;;;;;;19.48;14.63;;;3.50;99.90;;;;;;12208925;28;20044;-77
2021/05/07 04:04:10;;;;;;;19.00;13.77;;;3.50;99.90;;;;;;12208930;28;20132;-77
2021/05/07 04:10:17;;;;;;;20.67;14.10;;;3.90;99.90;;;;;;12256540;28;20040;-77
2021/05/07 04:16:18;;;;;;;20.48;13.73;;;4.30;99.90;;;;;;12252993;28;20048;-77
2021/05/07 04:22:20;;;;;;;19.70;14.38;;;4.30;99.90;;;;;;12212397;28;20135;-77
2021/05/07 04:28:23;;;;;;;19.90;13.65;;;4.20;99.90;;;;;;12168309;29;20045;-77
2021/05/07 04:34:24;;;;;;;21.17;13.50;;;4.50;99.90;;;;;;12168272;29;20722;-77
2021/05/07 04:40:26;;;;;;;17.23;12.90;;;4.50;99.90;;;;;;12161391;29;20503;-77
2021/05/07 04:46:27;;;;;;;22.13;13.77;;;4.70;99.90;;;;;;12214432;29;20102;-78
2021/05/07 04:52:28;;;;;;;19.00;13.68;;;4.50;99.90;;;;;;12214830;29;20413;-78
2021/05/07 04:58:30;;;;;;;19.38;14.10;;;4.70;99.90;;;;;;12217747;29;20076;-78
2021/05/07 05:04:31;;;;;;;18.52;13.38;;;4.70;99.90;;;;;;12221987;28;20060;-78
2021/05/07 05:10:32;;;;;;;18.52;11.13;;;4.70;99.90;;;;;;12215342;28;20557;-79
2021/05/07 05:16:34;;;;;;;16.50;10.50;;;4.80;99.90;;;;;;12210588;28;20045;-79
2021/05/07 05:22:36;;;;;;;14.00;9.45;;;4.80;99.90;;;;;;12209975;28;20044;-78
2021/05/07 05:28:38;;;;;;;13.65;10.13;;;4.80;99.90;;;;;;12210687;28;20068;-78
2021/05/07 05:34:39;;;;;;;13.07;9.77;;;4.80;99.90;;;;;;12210213;29;20678;-79
2021/05/07 05:40:41;;;;;;;11.07;8.93;;;4.80;99.90;;;;;;12207577;28;20059;-79
2021/05/07 05:46:43;;;;;;;13.32;9.48;;;5.10;99.90;;;;;;12207685;29;20603;-78
2021/05/07 05:52:44;;;;;;;12.90;8.52;;;5.20;99.90;;;;;;12205763;28;20114;-79
2021/05/07 05:58:45;;;;;;;13.77;9.57;;;5.30;99.90;;;;;;12213740;29;20052;-79
2021/05/07 06:04:46;;;;;;;14.65;10.43;;;5.40;99.90;;;;;;12183311;28;20112;-78
2021/05/07 06:10:48;;;;;;;16.20;9.70;;;5.50;99.90;;;;;;12176879;28;20543;-78
2021/05/07 06:16:49;;;;;;;13.50;10.60;;;5.60;99.90;;;;;;12215247;28;20459;-79
2021/05/07 06:22:51;;;;;;;10.93;8.82;;;5.60;99.90;;;;;;12212482;28;20087;-78
2021/05/07 06:28:52;;;;;;;13.18;10.07;;;5.50;99.90;;;;;;12215756;28;20134;-78
2021/05/07 06:34:53;;;;;;;13.57;9.45;;;5.40;99.90;;;;;;12212101;28;20171;-79
2021/05/07 06:40:55;;;;;;;11.55;8.25;;;5.40;99.90;;;;;;12216423;28;20079;-79
2021/05/07 06:46:56;;;;;;;9.38;7.32;;;5.40;99.90;;;;;;12204719;28;20052;-79
2021/05/07 06:52:57;;;;;;;12.18;7.82;;;5.40;99.90;;;;;;12213818;28;20482;-79
2021/05/07 06:58:59;;;;;;;9.85;7.50;;;5.90;99.90;;;;;;12212352;28;20104;-79
2021/05/07 07:05:00;;;;;;;10.30;7.05;;;6.20;99.90;;;;;;12209093;28;20734;-78
2021/05/07 07:11:02;;;;;;;9.68;6.15;;;6.00;99.90;;;;;;12218011;28;20055;-79
2021/05/07 07:17:04;;;;;;;9.52;6.53;;;5.80;99.90;;;;;;12204902;28;20448;-78
2021/05/07 07:23:06;;;;;;;10.82;6.07;;;6.10;99.90;;;;;;12210543;28;20052;-79
2021/05/07 07:29:07;;;;;;;9.10;5.57;;;6.00;99.90;;;;;;12210395;28;20051;-78
2021/05/07 07:35:09;;;;;;;8.82;4.90;;;6.00;99.90;;;;;;12210226;28;20457;-79
2021/05/07 07:41:11;;;;;;;7.15;3.90;;;6.10;99.90;;;;;;12211584;28;20505;-79
2021/05/07 07:47:12;;;;;;;5.20;3.85;;;6.30;99.90;;;;;;12212362;28;20460;-79
2021/05/07 07:53:14;;;;;;;4.85;3.70;;;6.70;99.90;;;;;;12204788;28;20458;-79
2021/05/07 07:59:15;;;;;;;3.67;2.65;;;6.80;99.90;;;;;;12218875;28;20083;-79
2021/05/07 08:05:17;;;;;;;5.05;2.47;;;6.40;99.90;;;;;;12213165;28;20059;-78
2021/05/07 08:11:19;;;;;;;2.80;2.00;;;6.60;99.90;;;;;;12211654;28;20044;-80
2021/05/07 08:17:20;;;;;;;5.25;1.90;;;6.60;99.90;;;;;;12220009;28;20194;-79
2021/05/07 08:23:24;;;;;;;3.67;1.73;;;6.50;99.90;;;;;;12204090;28;20044;-79
2021/05/07 08:29:27;;;;;;;3.58;2.00;;;6.40;99.90;;;;;;12213052;28;20051;-79
2021/05/07 08:35:28;;;;;;;4.63;2.15;;;6.60;99.90;;;;;;12211650;28;20108;-79
2021/05/07 08:41:29;;;;;;;5.93;2.10;;;6.40;99.90;;;;;;12207430;28;20079;-79
2021/05/07 08:47:32;;;;;;;5.10;1.70;;;6.20;99.90;;;;;;12209886;28;20516;-78
2021/05/07 08:53:35;;;;;;;2.70;1.50;;;6.60;99.90;;;;;;12213190;28;20052;-79
2021/05/07 08:59:39;;;;;;;3.45;1.60;;;6.60;99.90;;;;;;12204767;28;20942;-79
2021/05/07 09:05:40;;;;;;;2.97;1.70;;;6.70;99.90;;;;;;12206571;28;20092;-79
2021/05/07 09:11:43;;;;;;;3.13;1.83;;;6.60;99.90;;;;;;12200414;28;20120;-79
2021/05/07 09:17:44;;;;;;;3.05;1.80;;;6.50;99.90;;;;;;12208663;28;20040;-79
2021/05/07 09:23:47;;;;;;;3.35;2.00;;;6.40;99.90;;;;;;12206117;28;20048;-79
2021/05/07 09:29:49;;;;;;;4.07;2.15;;;6.40;99.90;;;;;;12215938;28;20056;-79
2021/05/07 09:35:50;;;;;;;2.47;1.95;;;6.90;99.90;;;;;;12208063;28;20428;-79
2021/05/07 09:41:53;;;;;;;3.03;2.00;;;7.40;99.90;;;;;;12210025;28;20157;-79
2021/05/07 09:47:54;;;;;;;3.55;1.77;;;8.20;99.90;;;;;;12220571;28;20048;-81
2021/05/07 09:54:07;;;;;;;1.50;1.20;;;7.80;99.90;;;;;;12206539;28;20064;-80
2021/05/07 10:00:09;;;;;;;2.45;1.42;;;7.30;99.90;;;;;;12207699;28;20476;-79
2021/05/07 10:06:10;;;;;;;2.45;1.20;;;7.30;99.90;;;;;;12209637;28;20066;-79
2021/05/07 10:12:14;;;;;;;2.50;1.50;;;7.50;99.90;;;;;;12211157;28;20129;-79
2021/05/07 10:18:25;;;;;;;2.53;1.27;;;8.20;99.90;;;;;;12209587;28;20144;-79
2021/05/07 10:24:36;;;;;;;1.90;1.10;;;8.30;99.90;;;;;;12232049;28;20079;-79
2021/05/07 10:30:37;;;;;;;2.30;1.17;;;8.60;99.90;;;;;;12201550;28;20121;-79
2021/05/07 10:36:40;;;;;;;1.92;1.00;;;9.30;99.90;;;;;;12201898;28;20052;-78
2021/05/07 10:42:56;;;;;;;1.73;0.90;;;9.50;99.90;;;;;;12205466;28;20044;-80
2021/05/07 10:49:01;;;;;;;3.22;1.05;;;9.90;99.90;;;;;;12206490;28;20134;-79
2021/05/07 10:55:06;;;;;;;1.52;0.90;;;9.80;99.90;;;;;;12207493;28;20544;-79
2021/05/07 11:01:27;;;;;;;1.55;0.80;;;10.10;99.90;;;;;;12224428;28;20036;-79
2021/05/07 11:07:30;;;;;;;3.70;1.00;;;9.70;99.90;;;;;;12205634;28;20067;-79
2021/05/07 11:13:31;;;;;;;1.10;0.80;;;9.90;99.90;;;;;;12206669;28;20079;-79
2021/05/07 11:19:35;;;;;;;2.55;0.90;;;10.30;99.90;;;;;;12208649;28;20452;-79
2021/05/07 11:25:39;;;;;;;2.00;1.10;;;11.00;99.90;;;;;;12218956;28;20074;-79
2021/05/07 11:31:43;;;;;;;2.35;0.85;;;10.90;99.90;;;;;;12209235;28;20051;-80
2021/05/07 11:37:45;;;;;;;2.97;1.23;;;11.40;99.90;;;;;;12209344;28;20048;-79
2021/05/07 11:43:46;;;;;;;3.83;1.40;;;11.70;99.90;;;;;;12211150;28;20079;-79
2021/05/07 11:49:50;;;;;;;1.73;0.90;;;11.50;99.90;;;;;;12207609;28;20071;-80
2021/05/07 11:55:51;;;;;;;3.15;0.90;;;11.60;99.90;;;;;;12204559;28;20110;-79
2021/05/07 12:01:52;;;;;;;2.25;0.88;;;10.80;99.90;;;;;;12202136;28;20036;-78
2021/05/07 12:07:54;;;;;;;3.38;1.02;;;10.30;99.90;;;;;;12211100;28;20534;-81
2021/05/07 12:14:07;;;;;;;2.03;1.10;;;10.20;99.90;;;;;;12204785;28;20062;-79
2021/05/07 12:20:13;;;;;;;3.08;1.10;;;10.10;99.90;;;;;;12210934;28;20143;-79
2021/05/07 12:26:16;;;;;;;2.72;1.10;;;10.30;99.90;;;;;;12208201;28;20048;-78
2021/05/07 12:32:21;;;;;;;2.03;1.30;;;9.70;99.90;;;;;;12204390;28;20052;-79
2021/05/07 12:38:29;;;;;;;3.30;1.40;;;9.30;99.90;;;;;;12206082;28;20507;-79
2021/05/07 12:44:30;;;;;;;2.35;1.20;;;9.80;99.90;;;;;;12209657;28;20059;-79
2021/05/07 12:50:32;;;;;;;3.42;1.17;;;10.20;99.90;;;;;;12213579;28;20044;-79
2021/05/07 12:56:33;;;;;;;2.95;0.98;;;10.80;99.90;;;;;;12216411;28;20607;-79
2021/05/07 13:02:34;;;;;;;3.10;1.30;;;10.90;99.90;;;;;;12205942;28;20078;-79
2021/05/07 13:08:36;;;;;;;2.65;1.13;;;11.60;99.90;;;;;;12206236;28;20055;-80
2021/05/07 13:14:38;;;;;;;2.42;1.00;;;11.90;99.90;;;;;;12207332;28;20039;-79
2021/05/07 13:20:39;;;;;;;1.88;1.17;;;12.40;99.90;;;;;;12284680;28;20059;-80
2021/05/07 13:26:41;;;;;;;5.28;1.60;;;11.30;99.90;;;;;;12214447;28;20571;-79
2021/05/07 13:32:43;;;;;;;1.92;1.10;;;10.70;99.90;;;;;;12202966;28;20072;-79
2021/05/07 13:38:45;;;;;;;3.42;1.30;;;10.30;99.90;;;;;;12232962;28;20697;-81
2021/05/07 13:44:47;;;;;;;4.53;1.50;;;10.30;99.90;;;;;;12204877;28;20050;-79
2021/05/07 13:50:49;;;;;;;4.10;1.50;;;10.40;99.90;;;;;;12214573;28;20070;-80
2021/05/07 13:56:51;;;;;;;3.45;1.60;;;11.60;99.90;;;;;;12214417;28;20060;-81
2021/05/07 14:02:53;;;;;;;4.13;1.30;;;12.10;99.90;;;;;;12204585;28;20284;-80
2021/05/07 14:08:55;;;;;;;4.50;1.35;;;12.70;99.90;;;;;;12213643;28;20551;-79
2021/05/07 14:15:16;;;;;;;14.00;1.88;;;12.00;99.90;;;;;;12206269;28;20055;-79
2021/05/07 14:21:18;;;;;;;4.75;1.50;;;11.30;99.90;;;;;;12222857;28;20135;-79
2021/05/07 14:27:20;;;;;;;3.20;1.50;;;11.40;99.90;;;;;;12212272;28;20841;-81
2021/05/07 14:33:22;;;;;;;3.08;1.50;;;11.20;99.90;;;;;;12208125;28;20048;-78
2021/05/07 14:39:23;;;;;;;2.47;1.48;;;11.30;99.90;;;;;;12206743;28;20071;-78
2021/05/07 14:45:25;;;;;;;4.28;1.70;;;11.30;99.90;;;;;;12210006;28;20079;-80
2021/05/07 14:51:26;;;;;;;4.57;1.98;;;11.10;99.90;;;;;;12208600;28;20630;-79
2021/05/07 14:57:28;;;;;;;4.57;2.20;;;11.10;99.90;;;;;;12207311;28;20055;-80
2021/05/07 15:03:29;;;;;;;4.95;2.30;;;11.00;99.90;;;;;;12213195;28;20063;-79
2021/05/07 15:09:31;;;;;;;3.28;2.00;;;10.80;99.90;;;;;;12212087;28;20059;-79
2021/05/07 15:15:32;;;;;;;3.83;2.25;;;10.80;99.90;;;;;;12218327;28;20607;-79
2021/05/07 15:21:34;;;;;;;2.60;1.60;;;11.70;99.90;;;;;;12211861;28;20047;-79
2021/05/07 15:27:35;;;;;;;3.70;1.80;;;11.50;99.90;;;;;;12208797;28;20155;-79
2021/05/07 15:33:36;;;;;;;3.28;1.42;;;11.30;99.90;;;;;;12216659;28;20052;-79
2021/05/07 15:39:39;;;;;;;4.47;1.55;;;12.70;99.90;;;;;;12216637;28;20044;-79
2021/05/07 15:45:40;;;;;;;3.97;1.55;;;12.10;99.90;;;;;;12208849;28;20106;-78
2021/05/07 15:51:42;;;;;;;4.07;1.88;;;11.60;99.90;;;;;;12212282;28;20051;-79
2021/05/07 15:57:43;;;;;;;2.97;1.70;;;11.70;99.90;;;;;;12217861;28;20114;-79
2021/05/07 16:03:45;;;;;;;2.55;1.10;;;12.70;99.90;;;;;;12208834;28;20111;-82
2021/05/07 16:09:49;;;;;;;4.35;1.00;;;13.30;99.90;;;;;;12210423;28;20107;-80
2021/05/07 16:15:50;;;;;;;1.95;0.90;;;13.00;99.90;;;;;;12212443;28;20048;-80
2021/05/07 16:21:51;;;;;;;3.75;0.82;;;13.10;99.90;;;;;;12215894;28;20119;-79
2021/05/07 16:27:54;;;;;;;1.52;0.75;;;13.10;99.90;;;;;;12208463;28;20185;-81
2021/05/07 16:33:56;;;;;;;2.40;1.00;;;12.90;99.90;;;;;;12199565;28;20052;-80
2021/05/07 16:39:58;;;;;;;1.45;0.80;;;13.60;99.90;;;;;;12232390;28;20044;-79
2021/05/07 16:46:00;;;;;;;3.22;1.00;;;13.90;99.90;;;;;;12212263;28;20174;-80
2021/05/07 16:52:02;;;;;;;3.10;1.17;;;14.00;99.90;;;;;;12201869;28;20048;-80
2021/05/07 16:58:03;;;;;;;2.00;1.00;;;14.00;99.90;;;;;;12219094;28;20110;-80
2021/05/07 17:04:05;;;;;;;3.53;1.20;;;14.10;99.90;;;;;;12197739;28;20087;-80
2021/05/07 17:10:07;;;;;;;2.55;1.20;;;14.00;99.90;;;;;;12215156;28;20524;-80
2021/05/07 17:16:09;;;;;;;1.30;1.00;;;14.90;99.90;;;;;;12220150;28;20071;-80
2021/05/07 17:22:10;;;;;;;3.03;1.35;;;14.50;99.90;;;;;;12206116;28;20083;-80
2021/05/07 17:28:11;;;;;;;3.33;1.17;;;13.80;99.90;;;;;;12210087;28;20094;-80
2021/05/07 17:34:13;;;;;;;3.13;1.15;;;13.60;99.90;;;;;;12210997;28;20182;-79
2021/05/07 17:40:15;;;;;;;4.10;1.35;;;14.10;99.90;;;;;;12211870;28;20072;-79
2021/05/07 17:46:17;;;;;;;2.50;1.30;;;13.70;99.90;;;;;;12224340;28;20393;-80
2021/05/07 17:52:19;;;;;;;3.47;1.27;;;13.60;99.90;;;;;;12205060;28;20064;-79
2021/05/07 17:58:21;;;;;;;2.75;1.17;;;13.00;99.90;;;;;;12204530;28;20084;-79
2021/05/07 18:04:23;;;;;;;2.67;1.30;;;12.60;99.90;;;;;;12212474;28;20489;-80
2021/05/07 18:10:24;;;;;;;2.60;1.30;;;12.10;99.90;;;;;;12209615;28;20090;-79
2021/05/07 18:16:25;;;;;;;4.53;1.70;;;11.60;99.90;;;;;;12244527;28;20048;-79
2021/05/07 18:22:26;;;;;;;3.58;1.33;;;11.50;99.90;;;;;;12259860;28;20305;-79
2021/05/07 18:28:28;;;;;;;4.03;1.70;;;11.20;99.90;;;;;;12268440;28;20056;-79
2021/05/07 18:34:29;;;;;;;2.67;1.60;;;11.00;99.90;;;;;;12231162;28;20058;-79
2021/05/07 18:40:30;;;;;;;2.15;1.27;;;10.90;99.90;;;;;;12210989;28;20039;-79
2021/05/07 18:46:32;;;;;;;2.50;1.45;;;10.40;99.90;;;;;;12211625;28;20075;-79
2021/05/07 18:52:36;;;;;;;2.60;1.50;;;10.40;99.90;;;;;;12211488;28;20052;-79
2021/05/07 18:58:37;;;;;;;5.50;1.70;;;10.30;99.90;;;;;;12216732;28;20111;-79
2021/05/07 19:04:38;;;;;;;5.40;1.88;;;10.10;99.90;;;;;;12212219;28;20074;-79
2021/05/07 19:10:42;;;;;;;5.45;2.00;;;10.00;99.90;;;;;;12200503;28;20214;-80
2021/05/07 19:16:45;;;;;;;4.22;2.10;;;9.80;99.90;;;;;;12213500;28;20114;-79
2021/05/07 19:22:46;;;;;;;4.35;1.90;;;9.80;99.90;;;;;;12211511;28;20839;-79
2021/05/07 19:28:48;;;;;;;4.32;2.25;;;9.70;99.90;;;;;;12212303;28;20051;-79
2021/05/07 19:34:49;;;;;;;3.50;2.10;;;9.50;99.90;;;;;;12204824;28;20507;-79
2021/05/07 19:40:50;;;;;;;7.20;2.60;;;9.40;99.90;;;;;;12205270;28;20056;-79
2021/05/07 19:46:52;;;;;;;4.40;2.30;;;9.40;99.90;;;;;;12210416;28;20052;-79
2021/05/07 19:52:54;;;;;;;5.07;2.40;;;8.80;99.90;;;;;;12208350;28;20059;-78
2021/05/07 19:58:55;;;;;;;4.72;2.50;;;8.70;99.90;;;;;;12210532;28;20477;-78
2021/05/07 20:04:57;;;;;;;8.35;2.72;;;8.70;99.90;;;;;;12208566;28;20418;-78
2021/05/07 20:10:59;;;;;;;4.72;2.58;;;9.10;99.90;;;;;;12208147;28;20048;-78
2021/05/07 20:17:01;;;;;;;5.10;2.50;;;9.10;99.90;;;;;;12200668;28;20044;-79
2021/05/07 20:23:03;;;;;;;4.70;2.30;;;9.10;99.90;;;;;;12199402;28;20048;-78
2021/05/07 20:29:05;;;;;;;4.57;2.40;;;9.10;99.90;;;;;;12197754;28;20574;-79
2021/05/07 20:35:10;;;;;;;7.28;2.83;;;9.10;99.90;;;;;;12211512;28;20135;-78
2021/05/07 20:41:11;;;;;;;7.35;2.70;;;8.90;99.90;;;;;;12207502;28;20139;-78
2021/05/07 20:47:13;;;;;;;5.50;2.60;;;8.80;99.90;;;;;;12218820;28;20114;-79
2021/05/07 20:53:14;;;;;;;7.15;2.58;;;8.30;99.90;;;;;;12204029;28;21279;-79
2021/05/07 20:59:16;;;;;;;4.78;2.60;;;8.10;99.90;;;;;;12203800;28;20169;-78
2021/05/07 21:05:18;;;;;;;6.18;2.55;;;7.70;99.90;;;;;;12207758;28;20510;-79
2021/05/07 21:11:20;;;;;;;5.03;2.90;;;7.40;99.90;;;;;;12211523;28;20072;-79
2021/05/07 21:17:21;;;;;;;7.78;2.90;;;7.30;99.90;;;;;;12214713;28;20194;-79
2021/05/07 21:23:23;;;;;;;5.93;2.95;;;7.20;99.90;;;;;;12207229;28;20052;-78
2021/05/07 21:29:24;;;;;;;5.32;3.25;;;6.80;99.90;;;;;;12207379;28;20581;-78
2021/05/07 21:35:25;;;;;;;4.55;3.10;;;6.70;99.90;;;;;;12204180;28;20134;-78
2021/05/07 21:41:27;;;;;;;6.05;3.10;;;6.60;99.90;;;;;;12205353;28;20404;-78
2021/05/07 21:47:29;;;;;;;6.15;2.97;;;6.50;99.90;;;;;;12215632;28;20507;-78
2021/05/07 21:53:31;;;;;;;5.40;2.80;;;6.40;99.90;;;;;;12215055;28;20066;-78
2021/05/07 21:59:32;;;;;;;8.00;3.40;;;6.40;99.90;;;;;;12212573;28;20135;-78
2021/05/07 22:05:34;;;;;;;5.50;3.13;;;6.30;99.90;;;;;;12207384;28;20530;-78
2021/05/07 22:11:35;;;;;;;5.95;3.10;;;6.30;99.90;;;;;;12209499;28;20818;-78
2021/05/07 22:17:36;;;;;;;5.00;2.85;;;6.30;99.90;;;;;;12209543;28;20130;-78
2021/05/07 22:23:38;;;;;;;4.93;2.70;;;6.20;99.90;;;;;;12218867;28;20040;-78
2021/05/07 22:29:39;;;;;;;4.20;2.33;;;6.10;99.90;;;;;;12203212;28;20059;-78
2021/05/07 22:35:41;;;;;;;5.68;2.60;;;6.00;99.90;;;;;;12205372;28;20147;-78
2021/05/07 22:41:42;;;;;;;6.20;2.75;;;5.90;99.90;;;;;;12225415;28;20071;-78
2021/05/07 22:47:43;;;;;;;5.63;2.60;;;5.90;99.90;;;;;;12197741;28;20060;-78
2021/05/07 22:53:45;;;;;;;5.07;2.47;;;5.80;99.90;;;;;;12172147;28;20455;-78
2021/05/07 22:59:46;;;;;;;5.88;2.60;;;5.80;99.90;;;;;;12162437;28;20076;-78
2021/05/07 23:05:47;;;;;;;4.85;3.22;;;5.80;99.90;;;;;;12154102;28;20740;-78
2021/05/07 23:11:48;;;;;;;5.95;3.28;;;5.80;99.90;;;;;;12250359;28;20541;-78
2021/05/07 23:17:50;;;;;;;4.78;3.10;;;5.60;99.90;;;;;;12216172;29;20135;-78
2021/05/07 23:23:51;;;;;;;5.10;3.30;;;5.60;99.90;;;;;;12207263;29;20055;-78
2021/05/07 23:29:53;;;;;;;5.82;3.25;;;5.50;99.90;;;;;;12207821;28;20086;-78
2021/05/07 23:35:54;;;;;;;6.60;3.50;;;5.40;99.90;;;;;;12206683;28;20097;-78
2021/05/07 23:41:56;;;;;;;6.68;3.67;;;5.40;99.90;;;;;;12207937;28;20048;-79
2021/05/07 23:47:57;;;;;;;4.93;3.83;;;5.30;99.90;;;;;;12211552;28;20135;-78
2021/05/07 23:53:58;;;;;;;7.60;4.35;;;5.30;99.90;;;;;;12201415;28;20083;-78
